createdAt,value
2023-07-24T00:00:25.892Z,0.00
2023-07-24T00:01:25.965Z,0.00
2023-07-24T00:02:25.866Z,0.00
2023-07-24T00:03:25.871Z,0.00
2023-07-24T00:04:25.834Z,0.00
2023-07-24T00:05:25.819Z,0.00
2023-07-24T00:06:25.832Z,0.00
2023-07-24T00:07:25.797Z,0.00
2023-07-24T00:08:25.781Z,0.00
2023-07-24T00:09:25.781Z,0.00
2023-07-24T00:10:25.789Z,0.00
2023-07-24T00:11:25.818Z,0.00
2023-07-24T00:12:25.764Z,0.00
2023-07-24T00:13:25.740Z,0.00
2023-07-24T00:14:25.701Z,0.00
2023-07-24T00:15:25.718Z,0.00
2023-07-24T00:16:25.744Z,0.00
2023-07-24T00:17:25.770Z,0.00
2023-07-24T00:18:25.682Z,0.00
2023-07-24T00:19:25.696Z,0.00
2023-07-24T00:20:25.710Z,0.00
2023-07-24T00:21:25.659Z,0.00
2023-07-24T00:22:25.630Z,0.00
2023-07-24T00:23:25.668Z,0.00
2023-07-24T00:24:25.654Z,0.00
2023-07-24T00:25:25.588Z,0.00
2023-07-24T00:26:25.628Z,0.00
2023-07-24T00:27:25.569Z,0.00
2023-07-24T00:28:25.564Z,0.00
2023-07-24T00:29:25.596Z,0.00
2023-07-24T00:30:25.531Z,0.00
2023-07-24T00:31:25.635Z,0.00
2023-07-24T00:32:25.522Z,0.00
2023-07-24T00:33:25.510Z,0.00
2023-07-24T00:34:26.324Z,0.00
2023-07-24T00:35:25.488Z,0.00
2023-07-24T00:36:25.466Z,0.00
2023-07-24T00:37:25.462Z,0.00
2023-07-24T00:38:25.519Z,0.00
2023-07-24T00:39:25.452Z,0.00
2023-07-24T00:40:25.427Z,0.00
2023-07-24T00:41:25.426Z,0.00
2023-07-24T00:42:25.399Z,0.00
2023-07-24T00:43:25.402Z,0.00
2023-07-24T00:44:25.388Z,0.00
2023-07-24T00:45:25.374Z,0.00
2023-07-24T00:46:26.185Z,0.00
2023-07-24T00:47:25.401Z,0.00
2023-07-24T00:48:25.350Z,0.00
2023-07-24T00:49:25.399Z,0.00
2023-07-24T00:50:25.317Z,0.00
2023-07-24T00:51:25.308Z,0.00
2023-07-24T00:52:25.283Z,0.00
2023-07-24T00:53:25.324Z,0.00
2023-07-24T00:54:25.279Z,0.00
2023-07-24T00:55:25.252Z,0.00
2023-07-24T00:56:25.266Z,0.00
2023-07-24T00:57:25.259Z,0.00
2023-07-24T00:58:25.279Z,0.00
2023-07-24T00:59:25.217Z,0.00
2023-07-24T01:00:25.214Z,0.00
2023-07-24T01:01:25.213Z,0.00
2023-07-24T01:02:25.284Z,0.00
2023-07-24T01:03:25.213Z,0.00
2023-07-24T01:04:25.205Z,0.00
2023-07-24T01:05:25.209Z,0.00
2023-07-24T01:06:25.160Z,0.00
2023-07-24T01:07:25.134Z,0.00
2023-07-24T01:08:25.133Z,0.00
2023-07-24T01:09:25.178Z,0.00
2023-07-24T01:10:25.094Z,0.00
2023-07-24T01:11:25.089Z,0.00
2023-07-24T01:12:25.096Z,0.00
2023-07-24T01:13:25.064Z,0.00
2023-07-24T01:14:25.058Z,0.00
2023-07-24T01:15:25.147Z,0.00
2023-07-24T01:16:25.078Z,0.00
2023-07-24T01:17:25.348Z,0.00
2023-07-24T01:18:25.005Z,0.00
2023-07-24T01:19:25.005Z,0.00
2023-07-24T01:20:24.972Z,0.00
2023-07-24T01:21:24.982Z,0.00
2023-07-24T01:22:24.966Z,0.00
2023-07-24T01:23:25.003Z,0.00
2023-07-24T01:24:25.010Z,0.00
2023-07-24T01:25:24.955Z,0.00
2023-07-24T01:26:24.941Z,0.00
2023-07-24T01:27:24.921Z,0.00
2023-07-24T01:28:24.903Z,0.00
2023-07-24T01:29:25.728Z,0.00
2023-07-24T01:30:25.035Z,0.00
2023-07-24T01:31:24.888Z,0.00
2023-07-24T01:32:24.902Z,0.00
2023-07-24T01:33:24.869Z,0.00
2023-07-24T01:34:24.831Z,0.00
2023-07-24T01:35:24.843Z,0.00
2023-07-24T01:36:24.815Z,0.00
2023-07-24T01:37:24.787Z,0.00
2023-07-24T01:38:24.842Z,0.00
2023-07-24T01:39:24.827Z,0.00
2023-07-24T01:40:24.768Z,0.00
2023-07-24T01:41:24.751Z,0.00
2023-07-24T01:42:24.736Z,0.00
2023-07-24T01:43:24.806Z,0.00
2023-07-24T01:44:24.780Z,0.00
2023-07-24T01:45:24.721Z,0.00
2023-07-24T01:46:24.779Z,0.00
2023-07-24T01:47:24.797Z,0.00
2023-07-24T01:48:24.688Z,0.00
2023-07-24T01:49:24.750Z,0.00
2023-07-24T01:50:24.759Z,0.00
2023-07-24T01:51:24.649Z,0.00
2023-07-24T01:52:24.631Z,0.00
2023-07-24T01:53:24.644Z,0.00
2023-07-24T01:54:24.664Z,0.00
2023-07-24T01:55:24.639Z,0.00
2023-07-24T01:56:24.591Z,0.00
2023-07-24T01:57:24.593Z,0.00
2023-07-24T01:58:24.601Z,0.00
2023-07-24T01:59:24.599Z,0.00
2023-07-24T02:00:24.563Z,0.00
2023-07-24T02:01:24.562Z,0.00
2023-07-24T02:02:24.575Z,0.00
2023-07-24T02:03:24.628Z,0.00
2023-07-24T02:04:25.162Z,0.00
2023-07-24T02:05:24.541Z,0.00
2023-07-24T02:06:24.473Z,0.00
2023-07-24T02:07:24.485Z,0.00
2023-07-24T02:08:24.452Z,0.00
2023-07-24T02:09:24.463Z,0.00
2023-07-24T02:10:24.441Z,0.00
2023-07-24T02:11:24.426Z,0.00
2023-07-24T02:12:24.409Z,0.00
2023-07-24T02:13:24.414Z,0.00
2023-07-24T02:14:24.443Z,0.00
2023-07-24T02:15:24.396Z,0.00
2023-07-24T02:16:24.420Z,0.00
2023-07-24T02:17:24.437Z,0.00
2023-07-24T02:18:24.364Z,0.00
2023-07-24T02:19:24.336Z,0.00
2023-07-24T02:20:24.329Z,0.00
2023-07-24T02:21:24.319Z,0.00
2023-07-24T02:22:24.306Z,0.00
2023-07-24T02:23:24.332Z,0.00
2023-07-24T02:24:24.302Z,0.00
2023-07-24T02:25:26.019Z,0.00
2023-07-24T02:26:24.308Z,0.00
2023-07-24T02:27:24.253Z,0.00
2023-07-24T02:28:24.220Z,0.00
2023-07-24T02:29:24.240Z,0.00
2023-07-24T02:30:24.207Z,0.00
2023-07-24T02:31:24.243Z,0.00
2023-07-24T02:32:24.237Z,0.00
2023-07-24T02:33:24.187Z,0.00
2023-07-24T02:34:24.170Z,0.00
2023-07-24T02:35:24.205Z,0.00
2023-07-24T02:36:24.134Z,0.00
2023-07-24T02:37:24.167Z,0.00
2023-07-24T02:38:24.265Z,0.00
2023-07-24T02:39:24.150Z,0.00
2023-07-24T02:40:24.127Z,0.00
2023-07-24T02:41:24.076Z,0.00
2023-07-24T02:42:24.081Z,0.00
2023-07-24T02:43:24.075Z,0.00
2023-07-24T02:44:24.672Z,0.00
2023-07-24T02:45:24.044Z,0.00
2023-07-24T02:46:24.055Z,0.00
2023-07-24T02:47:24.083Z,0.00
2023-07-24T02:48:24.050Z,0.00
2023-07-24T02:49:23.988Z,0.00
2023-07-24T02:50:24.034Z,0.00
2023-07-24T02:51:23.989Z,0.00
2023-07-24T02:52:23.991Z,0.00
2023-07-24T02:53:23.957Z,0.00
2023-07-24T02:54:23.957Z,0.00
2023-07-24T02:55:23.932Z,0.00
2023-07-24T02:56:23.926Z,0.00
2023-07-24T02:57:23.912Z,0.00
2023-07-24T02:58:23.919Z,0.00
2023-07-24T02:59:23.877Z,0.00
2023-07-24T03:00:23.934Z,0.00
2023-07-24T03:01:23.903Z,0.00
2023-07-24T03:02:23.951Z,0.00
2023-07-24T03:03:23.879Z,0.00
2023-07-24T03:04:24.669Z,0.00
2023-07-24T03:05:24.022Z,0.00
2023-07-24T03:06:23.829Z,0.00
2023-07-24T03:07:23.799Z,0.00
2023-07-24T03:08:23.791Z,0.00
2023-07-24T03:09:23.763Z,0.00
2023-07-24T03:10:23.850Z,0.00
2023-07-24T03:11:23.768Z,0.00
2023-07-24T03:12:23.733Z,0.00
2023-07-24T03:13:23.722Z,0.00
2023-07-24T03:14:23.734Z,0.00
2023-07-24T03:15:23.733Z,0.00
2023-07-24T03:16:23.769Z,0.00
2023-07-24T03:17:23.709Z,0.00
2023-07-24T03:18:23.717Z,0.00
2023-07-24T03:19:23.652Z,0.00
2023-07-24T03:20:23.665Z,0.00
2023-07-24T03:21:23.642Z,0.00
2023-07-24T03:22:23.669Z,0.00
2023-07-24T03:23:23.626Z,0.00
2023-07-24T03:24:23.674Z,0.00
2023-07-24T03:25:23.614Z,4.00
2023-07-24T03:26:23.617Z,4.00
2023-07-24T03:27:23.641Z,0.00
2023-07-24T03:28:23.626Z,4.00
2023-07-24T03:29:23.544Z,4.00
2023-07-24T03:30:23.643Z,4.00
2023-07-24T03:31:23.705Z,4.00
2023-07-24T03:32:23.553Z,8.00
2023-07-24T03:33:23.520Z,8.00
2023-07-24T03:34:23.546Z,8.00
2023-07-24T03:35:23.500Z,8.00
2023-07-24T03:36:24.738Z,8.00
2023-07-24T03:37:23.449Z,8.00
2023-07-24T03:38:23.464Z,8.00
2023-07-24T03:39:23.486Z,8.00
2023-07-24T03:40:23.436Z,16.00
2023-07-24T03:41:23.433Z,16.00
2023-07-24T03:42:23.413Z,16.00
2023-07-24T03:43:23.406Z,20.00
2023-07-24T03:44:23.412Z,20.00
2023-07-24T03:45:24.376Z,16.00
2023-07-24T03:46:23.406Z,16.00
2023-07-24T03:47:23.419Z,16.00
2023-07-24T03:48:23.373Z,16.00
2023-07-24T03:49:23.341Z,20.00
2023-07-24T03:50:23.326Z,20.00
2023-07-24T03:51:23.321Z,24.00
2023-07-24T03:52:23.310Z,28.00
2023-07-24T03:53:23.287Z,28.00
2023-07-24T03:54:23.328Z,32.00
2023-07-24T03:55:23.275Z,36.00
2023-07-24T03:56:23.278Z,40.00
2023-07-24T03:57:23.289Z,52.00
2023-07-24T03:58:23.290Z,52.00
2023-07-24T03:59:23.223Z,52.00
2023-07-24T04:00:23.206Z,44.00
2023-07-24T04:01:23.284Z,44.00
2023-07-24T04:02:23.235Z,40.00
2023-07-24T04:03:23.223Z,44.00
2023-07-24T04:04:23.225Z,48.00
2023-07-24T04:05:23.135Z,56.00
2023-07-24T04:06:23.263Z,68.00
2023-07-24T04:07:23.158Z,64.00
2023-07-24T04:08:23.127Z,72.00
2023-07-24T04:09:23.135Z,100.00
2023-07-24T04:10:23.094Z,120.00
2023-07-24T04:11:23.093Z,148.00
2023-07-24T04:12:23.113Z,160.00
2023-07-24T04:13:23.053Z,168.00
2023-07-24T04:14:23.078Z,176.00
2023-07-24T04:15:23.081Z,196.00
2023-07-24T04:16:23.039Z,212.00
2023-07-24T04:17:23.115Z,228.00
2023-07-24T04:18:23.005Z,212.00
2023-07-24T04:19:22.998Z,200.00
2023-07-24T04:20:23.039Z,196.00
2023-07-24T04:21:23.075Z,196.00
2023-07-24T04:22:22.992Z,208.00
2023-07-24T04:23:23.019Z,240.00
2023-07-24T04:24:22.974Z,308.00
2023-07-24T04:25:22.940Z,360.00
2023-07-24T04:26:23.114Z,400.00
2023-07-24T04:27:22.907Z,420.00
2023-07-24T04:28:22.905Z,524.00
2023-07-24T04:29:22.946Z,600.00
2023-07-24T04:30:22.866Z,608.00
2023-07-24T04:31:23.009Z,552.00
2023-07-24T04:32:22.992Z,456.00
2023-07-24T04:33:22.880Z,356.00
2023-07-24T04:34:22.830Z,296.00
2023-07-24T04:35:22.833Z,272.00
2023-07-24T04:36:25.749Z,252.00
2023-07-24T04:37:22.804Z,204.00
2023-07-24T04:38:22.790Z,184.00
2023-07-24T04:39:22.779Z,168.00
2023-07-24T04:40:22.804Z,164.00
2023-07-24T04:41:22.762Z,160.00
2023-07-24T04:42:22.752Z,176.00
2023-07-24T04:43:22.728Z,208.00
2023-07-24T04:44:22.708Z,292.00
2023-07-24T04:45:24.160Z,376.00
2023-07-24T04:46:22.798Z,444.00
2023-07-24T04:47:22.693Z,540.00
2023-07-24T04:48:22.667Z,616.00
2023-07-24T04:49:22.706Z,680.00
2023-07-24T04:50:22.663Z,724.00
2023-07-24T04:51:22.661Z,772.00
2023-07-24T04:52:22.681Z,852.00
2023-07-24T04:53:22.629Z,872.00
2023-07-24T04:54:22.629Z,908.00
2023-07-24T04:55:22.604Z,916.00
2023-07-24T04:56:22.593Z,828.00
2023-07-24T04:57:22.568Z,672.00
2023-07-24T04:58:22.568Z,676.00
2023-07-24T04:59:22.572Z,668.00
2023-07-24T05:00:22.611Z,704.00
2023-07-24T05:01:22.591Z,664.00
2023-07-24T05:02:22.598Z,636.00
2023-07-24T05:03:22.522Z,636.00
2023-07-24T05:04:22.559Z,664.00
2023-07-24T05:05:22.644Z,796.00
2023-07-24T05:06:22.468Z,944.00
2023-07-24T05:07:22.473Z,1188.00
2023-07-24T05:08:22.449Z,1348.00
2023-07-24T05:09:22.457Z,1440.00
2023-07-24T05:10:22.522Z,1436.00
2023-07-24T05:11:22.426Z,1364.00
2023-07-24T05:12:22.401Z,1468.00
2023-07-24T05:13:22.452Z,1636.00
2023-07-24T05:14:22.402Z,1656.00
2023-07-24T05:15:22.393Z,1772.00
2023-07-24T05:16:22.411Z,1904.00
2023-07-24T05:17:22.386Z,1932.00
2023-07-24T05:18:23.352Z,1864.00
2023-07-24T05:19:22.360Z,1780.00
2023-07-24T05:20:22.411Z,1640.00
2023-07-24T05:21:22.316Z,1560.00
2023-07-24T05:22:22.318Z,1496.00
2023-07-24T05:23:22.328Z,1444.00
2023-07-24T05:24:22.285Z,1420.00
2023-07-24T05:25:22.307Z,1408.00
2023-07-24T05:26:22.246Z,1348.00
2023-07-24T05:27:22.258Z,1320.00
2023-07-24T05:28:22.277Z,1308.00
2023-07-24T05:29:22.325Z,1296.00
2023-07-24T05:30:22.227Z,1316.00
2023-07-24T05:31:22.205Z,1456.00
2023-07-24T05:32:22.244Z,1568.00
2023-07-24T05:33:22.709Z,1620.00
2023-07-24T05:34:22.171Z,1752.00
2023-07-24T05:35:22.182Z,1784.00
2023-07-24T05:36:22.132Z,1740.00
2023-07-24T05:37:22.173Z,1652.00
2023-07-24T05:38:22.171Z,1648.00
2023-07-24T05:39:22.095Z,1704.00
2023-07-24T05:40:22.783Z,1724.00
2023-07-24T05:41:22.078Z,1832.00
2023-07-24T05:42:22.085Z,2500.00
2023-07-24T05:43:22.700Z,3164.00
2023-07-24T05:44:22.051Z,2828.00
2023-07-24T05:45:22.152Z,2428.00
2023-07-24T05:46:22.186Z,2172.00
2023-07-24T05:47:22.063Z,2216.00
2023-07-24T05:48:22.012Z,2216.00
2023-07-24T05:49:21.996Z,2136.00
2023-07-24T05:50:22.121Z,2232.00
2023-07-24T05:51:21.997Z,2168.00
2023-07-24T05:52:22.016Z,2320.00
2023-07-24T05:53:23.775Z,2444.00
2023-07-24T05:54:21.965Z,2568.00
2023-07-24T05:55:21.964Z,2728.00
2023-07-24T05:56:21.929Z,3068.00
2023-07-24T05:57:22.007Z,3256.00
2023-07-24T05:58:22.712Z,3340.00
2023-07-24T05:59:22.055Z,3384.00
2023-07-24T06:00:21.943Z,3448.00
2023-07-24T06:01:21.937Z,3516.00
2023-07-24T06:02:21.856Z,3596.00
2023-07-24T06:03:21.967Z,3732.00
2023-07-24T06:04:22.082Z,3840.00
2023-07-24T06:05:21.950Z,3904.00
2023-07-24T06:06:22.640Z,4044.00
2023-07-24T06:07:21.790Z,4268.00
2023-07-24T06:08:22.587Z,4408.00
2023-07-24T06:09:22.431Z,4432.00
2023-07-24T06:10:21.784Z,4272.00
2023-07-24T06:11:21.750Z,4112.00
2023-07-24T06:12:21.741Z,3908.00
2023-07-24T06:13:21.745Z,3884.00
2023-07-24T06:14:21.735Z,3856.00
2023-07-24T06:15:21.724Z,3696.00
2023-07-24T06:16:21.736Z,3660.00
2023-07-24T06:17:21.684Z,3664.00
2023-07-24T06:18:21.692Z,3536.00
2023-07-24T06:19:21.651Z,3504.00
2023-07-24T06:20:21.742Z,3488.00
2023-07-24T06:21:21.656Z,3372.00
2023-07-24T06:22:21.620Z,3208.00
2023-07-24T06:23:21.605Z,3000.00
2023-07-24T06:24:21.659Z,2676.00
2023-07-24T06:25:22.579Z,2452.00
2023-07-24T06:26:21.583Z,2324.00
2023-07-24T06:27:21.580Z,2140.00
2023-07-24T06:28:21.602Z,2000.00
2023-07-24T06:29:21.575Z,2024.00
2023-07-24T06:30:21.603Z,2196.00
2023-07-24T06:31:21.576Z,2392.00
2023-07-24T06:32:21.510Z,2624.00
2023-07-24T06:33:21.516Z,3176.00
2023-07-24T06:34:21.528Z,3860.00
2023-07-24T06:35:21.515Z,4208.00
2023-07-24T06:36:21.512Z,4256.00
2023-07-24T06:37:23.119Z,4216.00
2023-07-24T06:38:21.457Z,4156.00
2023-07-24T06:39:21.536Z,4008.00
2023-07-24T06:40:21.438Z,3748.00
2023-07-24T06:41:21.451Z,3524.00
2023-07-24T06:42:21.692Z,3292.00
2023-07-24T06:43:21.448Z,3260.00
2023-07-24T06:44:21.449Z,3112.00
2023-07-24T06:45:21.387Z,2960.00
2023-07-24T06:46:22.453Z,3004.00
2023-07-24T06:47:21.355Z,3060.00
2023-07-24T06:48:21.353Z,3136.00
2023-07-24T06:49:21.444Z,3168.00
2023-07-24T06:50:21.325Z,3244.00
2023-07-24T06:51:21.301Z,3268.00
2023-07-24T06:52:21.340Z,3324.00
2023-07-24T06:53:23.053Z,3312.00
2023-07-24T06:54:21.291Z,3228.00
2023-07-24T06:55:21.277Z,3084.00
2023-07-24T06:56:21.264Z,2896.00
2023-07-24T06:57:21.276Z,2720.00
2023-07-24T06:58:21.286Z,2528.00
2023-07-24T06:59:21.210Z,2540.00
2023-07-24T07:00:21.215Z,2620.00
2023-07-24T07:01:21.235Z,2612.00
2023-07-24T07:02:21.191Z,2696.00
2023-07-24T07:03:21.242Z,2848.00
2023-07-24T07:04:21.252Z,2856.00
2023-07-24T07:05:21.133Z,3572.00
2023-07-24T07:07:21.220Z,5684.00
2023-07-24T07:08:21.129Z,5916.00
2023-07-24T07:09:21.111Z,5544.00
2023-07-24T07:10:21.137Z,5288.00
2023-07-24T07:11:21.130Z,5284.00
2023-07-24T07:12:22.381Z,5332.00
2023-07-24T07:13:21.068Z,5740.00
2023-07-24T07:14:21.054Z,6020.00
2023-07-24T07:15:21.057Z,6720.00
2023-07-24T07:16:21.062Z,7044.00
2023-07-24T07:17:21.044Z,6352.00
2023-07-24T07:18:21.005Z,5072.00
2023-07-24T07:19:20.996Z,3452.00
2023-07-24T07:20:20.968Z,2600.00
2023-07-24T07:21:20.992Z,1960.00
2023-07-24T07:22:21.010Z,1520.00
2023-07-24T07:23:20.964Z,1272.00
2023-07-24T07:24:20.999Z,1156.00
2023-07-24T07:25:20.956Z,1100.00
2023-07-24T07:26:20.971Z,1040.00
2023-07-24T07:27:20.937Z,976.00
2023-07-24T07:28:20.922Z,940.00
2023-07-24T07:29:20.900Z,928.00
2023-07-24T07:30:20.895Z,924.00
2023-07-24T07:31:20.937Z,880.00
2023-07-24T07:32:20.859Z,796.00
2023-07-24T07:33:20.880Z,776.00
2023-07-24T07:34:20.869Z,736.00
2023-07-24T07:35:20.817Z,724.00
2023-07-24T07:36:21.939Z,1108.00
2023-07-24T07:37:20.812Z,1708.00
2023-07-24T07:38:20.800Z,1976.00
2023-07-24T07:39:20.795Z,1960.00
2023-07-24T07:40:20.794Z,1956.00
2023-07-24T07:41:20.838Z,2076.00
2023-07-24T07:42:20.734Z,2220.00
2023-07-24T07:43:20.738Z,2180.00
2023-07-24T07:44:21.750Z,2048.00
2023-07-24T07:45:20.768Z,1976.00
2023-07-24T07:46:20.751Z,1932.00
2023-07-24T07:47:20.767Z,1848.00
2023-07-24T07:48:20.666Z,1804.00
2023-07-24T07:49:20.668Z,1940.00
2023-07-24T07:50:20.702Z,2144.00
2023-07-24T07:51:20.672Z,2408.00
2023-07-24T07:52:20.874Z,2744.00
2023-07-24T07:53:20.679Z,3176.00
2023-07-24T07:54:20.623Z,3552.00
2023-07-24T07:55:20.625Z,3768.00
2023-07-24T07:56:20.629Z,3840.00
2023-07-24T07:57:21.294Z,3764.00
2023-07-24T07:58:21.305Z,3588.00
2023-07-24T07:59:21.125Z,3256.00
2023-07-24T08:00:21.113Z,2992.00
2023-07-24T08:01:20.661Z,2884.00
2023-07-24T08:02:20.555Z,2860.00
2023-07-24T08:03:20.596Z,2840.00
2023-07-24T08:04:20.528Z,2928.00
2023-07-24T08:05:21.671Z,3000.00
2023-07-24T08:06:20.560Z,3068.00
2023-07-24T08:07:21.303Z,3228.00
2023-07-24T08:08:20.462Z,3280.00
2023-07-24T08:09:20.490Z,3212.00
2023-07-24T08:10:20.458Z,3092.00
2023-07-24T08:11:20.433Z,3132.00
2023-07-24T08:12:20.430Z,3400.00
2023-07-24T08:13:20.400Z,3928.00
2023-07-24T08:14:20.411Z,4344.00
2023-07-24T08:15:20.378Z,4680.00
2023-07-24T08:16:20.461Z,4728.00
2023-07-24T08:17:20.440Z,4680.00
2023-07-24T08:18:20.372Z,4236.00
2023-07-24T08:19:20.347Z,3676.00
2023-07-24T08:20:20.392Z,3240.00
2023-07-24T08:21:20.328Z,3068.00
2023-07-24T08:22:21.095Z,2760.00
2023-07-24T08:23:20.296Z,2508.00
2023-07-24T08:24:20.327Z,2340.00
2023-07-24T08:25:20.318Z,2336.00
2023-07-24T08:26:20.270Z,2396.00
2023-07-24T08:27:20.251Z,2604.00
2023-07-24T08:28:20.216Z,2880.00
2023-07-24T08:29:20.361Z,3124.00
2023-07-24T08:30:20.200Z,3552.00
2023-07-24T08:31:20.270Z,4136.00
2023-07-24T08:32:20.304Z,4860.00
2023-07-24T08:33:20.182Z,5232.00
2023-07-24T08:34:20.202Z,5196.00
2023-07-24T08:35:20.144Z,4644.00
2023-07-24T08:36:20.132Z,4116.00
2023-07-24T08:37:20.165Z,3580.00
2023-07-24T08:38:20.153Z,4108.00
2023-07-24T08:39:20.149Z,4868.00
2023-07-24T08:40:20.124Z,5012.00
2023-07-24T08:41:20.144Z,4936.00
2023-07-24T08:42:20.131Z,4656.00
2023-07-24T08:43:21.986Z,4624.00
2023-07-24T08:44:20.065Z,4496.00
2023-07-24T08:45:20.036Z,4668.00
2023-07-24T08:46:20.051Z,4892.00
2023-07-24T08:47:20.866Z,4876.00
2023-07-24T08:48:20.240Z,4512.00
2023-07-24T08:49:22.027Z,3780.00
2023-07-24T08:50:20.808Z,3168.00
2023-07-24T08:51:19.995Z,2880.00
2023-07-24T08:52:34.421Z,2864.00
2023-07-24T08:53:19.975Z,2880.00
2023-07-24T08:54:19.970Z,2732.00
2023-07-24T08:55:19.987Z,2864.00
2023-07-24T08:56:19.938Z,3136.00
2023-07-24T08:57:20.234Z,3200.00
2023-07-24T08:58:19.900Z,2836.00
2023-07-24T08:59:20.117Z,2184.00
2023-07-24T09:00:19.927Z,1784.00
2023-07-24T09:01:19.912Z,1700.00
2023-07-24T09:02:20.270Z,1700.00
2023-07-24T09:03:20.002Z,1632.00
2023-07-24T09:04:19.839Z,1540.00
2023-07-24T09:05:19.853Z,1452.00
2023-07-24T09:06:20.820Z,1408.00
2023-07-24T09:07:21.256Z,1448.00
2023-07-24T09:08:19.792Z,1596.00
2023-07-24T09:09:19.801Z,1872.00
2023-07-24T09:10:19.923Z,1872.00
2023-07-24T09:11:19.786Z,1680.00
2023-07-24T09:12:19.771Z,1396.00
2023-07-24T09:13:19.783Z,1304.00
2023-07-24T09:14:20.642Z,1720.00
2023-07-24T09:15:19.783Z,2372.00
2023-07-24T09:16:19.733Z,2712.00
2023-07-24T09:17:19.773Z,2776.00
2023-07-24T09:18:19.688Z,2504.00
2023-07-24T09:19:26.639Z,2132.00
2023-07-24T09:20:31.983Z,1832.00
2023-07-24T09:21:21.091Z,1624.00
2023-07-24T09:22:20.650Z,1532.00
2023-07-24T09:23:22.044Z,1548.00
2023-07-24T09:24:19.701Z,1536.00
2023-07-24T09:25:19.632Z,1620.00
2023-07-24T09:26:21.937Z,1852.00
2023-07-24T09:27:19.571Z,1920.00
2023-07-24T09:28:19.601Z,2160.00
2023-07-24T09:29:19.600Z,2668.00
2023-07-24T09:30:19.565Z,3532.00
2023-07-24T09:31:19.572Z,4448.00
2023-07-24T09:32:19.590Z,5268.00
2023-07-24T09:33:19.525Z,5420.00
2023-07-24T09:34:19.557Z,5284.00
2023-07-24T09:35:19.520Z,4808.00
2023-07-24T09:36:19.493Z,4476.00
2023-07-24T09:37:19.467Z,4196.00
2023-07-24T09:38:19.461Z,4460.00
2023-07-24T09:39:19.446Z,5184.00
2023-07-24T09:40:19.489Z,6136.00
2023-07-24T09:42:19.549Z,6388.00
2023-07-24T09:43:37.009Z,6048.00
2023-07-24T09:44:19.460Z,5352.00
2023-07-24T09:45:23.183Z,4900.00
2023-07-24T09:46:19.426Z,4760.00
2023-07-24T09:48:40.793Z,5484.00
2023-07-24T09:49:19.453Z,6156.00
2023-07-24T09:50:19.817Z,6840.00
2023-07-24T09:51:19.305Z,7232.00
2023-07-24T09:52:19.304Z,7312.00
2023-07-24T09:53:19.311Z,6996.00
2023-07-24T09:54:19.381Z,5868.00
2023-07-24T09:55:19.285Z,5276.00
2023-07-24T09:56:19.288Z,5196.00
2023-07-24T09:57:21.664Z,4836.00
2023-07-24T09:58:19.227Z,4688.00
2023-07-24T09:59:19.543Z,5128.00
2023-07-24T10:00:19.225Z,6096.00
2023-07-24T10:01:19.302Z,6968.00
2023-07-24T10:02:19.211Z,6924.00
2023-07-24T10:03:19.177Z,6900.00
2023-07-24T10:04:19.367Z,6456.00
2023-07-24T10:05:19.212Z,5940.00
2023-07-24T10:06:19.150Z,5392.00
2023-07-24T10:07:19.153Z,4644.00
2023-07-24T10:08:19.128Z,3916.00
2023-07-24T10:09:19.225Z,3636.00
2023-07-24T10:10:19.701Z,3748.00
2023-07-24T10:11:19.077Z,3936.00
2023-07-24T10:12:19.063Z,4108.00
2023-07-24T10:13:19.190Z,4720.00
2023-07-24T10:14:19.119Z,5312.00
2023-07-24T10:15:19.064Z,5504.00
2023-07-24T10:16:19.085Z,5016.00
2023-07-24T10:17:20.616Z,4680.00
2023-07-24T10:18:19.021Z,4748.00
2023-07-24T10:19:20.662Z,4828.00
2023-07-24T10:20:18.978Z,5044.00
2023-07-24T10:21:19.001Z,5412.00
2023-07-24T10:22:18.977Z,5688.00
2023-07-24T10:23:19.070Z,5912.00
2023-07-24T10:24:35.425Z,6108.00
2023-07-24T10:25:19.052Z,5472.00
2023-07-24T10:26:19.014Z,4532.00
2023-07-24T10:27:19.378Z,4156.00
2023-07-24T10:28:19.013Z,4652.00
2023-07-24T10:29:19.011Z,5940.00
2023-07-24T10:30:33.709Z,6984.00
2023-07-24T10:31:19.046Z,7472.00
2023-07-24T10:32:18.983Z,7796.00
2023-07-24T10:33:19.148Z,8028.00
2023-07-24T10:34:18.889Z,8364.00
2023-07-24T10:35:18.851Z,8312.00
2023-07-24T10:36:18.846Z,7856.00
2023-07-24T10:37:18.851Z,7152.00
2023-07-24T10:38:18.802Z,6820.00
2023-07-24T10:39:18.879Z,6888.00
2023-07-24T10:40:19.028Z,7140.00
2023-07-24T10:41:18.812Z,7468.00
2023-07-24T10:42:18.760Z,7468.00
2023-07-24T10:43:18.746Z,7232.00
2023-07-24T10:44:19.332Z,7260.00
2023-07-24T10:45:18.703Z,7172.00
2023-07-24T10:46:18.762Z,6512.00
2023-07-24T10:47:18.699Z,5940.00
2023-07-24T10:48:18.668Z,5520.00
2023-07-24T10:49:18.888Z,5316.00
2023-07-24T10:50:18.649Z,4952.00
2023-07-24T10:51:18.643Z,4708.00
2023-07-24T10:52:18.639Z,4308.00
2023-07-24T10:53:18.629Z,4120.00
2023-07-24T10:54:18.930Z,4220.00
2023-07-24T10:55:18.652Z,4424.00
2023-07-24T10:56:18.720Z,4920.00
2023-07-24T10:57:18.611Z,5328.00
2023-07-24T10:58:18.632Z,5708.00
2023-07-24T10:59:18.582Z,6216.00
2023-07-24T11:00:18.607Z,6996.00
2023-07-24T11:01:18.574Z,7816.00
2023-07-24T11:02:18.537Z,8004.00
2023-07-24T11:03:18.515Z,8008.00
2023-07-24T11:04:18.621Z,7924.00
2023-07-24T11:05:19.490Z,7624.00
2023-07-24T11:06:18.489Z,6960.00
2023-07-24T11:07:18.483Z,6216.00
2023-07-24T11:08:18.507Z,5764.00
2023-07-24T11:09:18.456Z,5804.00
2023-07-24T11:10:20.360Z,5220.00
2023-07-24T11:11:18.547Z,4840.00
2023-07-24T11:12:19.291Z,4700.00
2023-07-24T11:13:18.549Z,4516.00
2023-07-24T11:14:18.433Z,4324.00
2023-07-24T11:15:18.774Z,4488.00
2023-07-24T11:16:18.409Z,4660.00
2023-07-24T11:17:18.400Z,4944.00
2023-07-24T11:18:18.386Z,4824.00
2023-07-24T11:19:18.472Z,4600.00
2023-07-24T11:20:18.345Z,4488.00
2023-07-24T11:21:18.355Z,4456.00
2023-07-24T11:22:18.357Z,4876.00
2023-07-24T11:23:18.320Z,4744.00
2023-07-24T11:24:18.362Z,4420.00
2023-07-24T11:25:18.301Z,4336.00
2023-07-24T11:26:18.313Z,4276.00
2023-07-24T11:27:18.786Z,4268.00
2023-07-24T11:28:18.267Z,4236.00
2023-07-24T11:29:18.377Z,4172.00
2023-07-24T11:30:18.285Z,4340.00
2023-07-24T11:31:18.225Z,5044.00
2023-07-24T11:32:18.194Z,5920.00
2023-07-24T11:33:19.594Z,6144.00
2023-07-24T11:34:18.837Z,5596.00
2023-07-24T11:35:18.203Z,5540.00
2023-07-24T11:36:18.191Z,5556.00
2023-07-24T11:37:18.153Z,6188.00
2023-07-24T11:38:18.142Z,6920.00
2023-07-24T11:39:19.672Z,7160.00
2023-07-24T11:40:18.132Z,7064.00
2023-07-24T11:41:18.116Z,6748.00
2023-07-24T11:42:18.098Z,6176.00
2023-07-24T11:43:18.072Z,5812.00
2023-07-24T11:44:18.106Z,5428.00
2023-07-24T11:45:18.139Z,5192.00
2023-07-24T11:46:18.066Z,5088.00
2023-07-24T11:47:18.810Z,5256.00
2023-07-24T11:48:18.121Z,5500.00
2023-07-24T11:49:18.838Z,5836.00
2023-07-24T11:50:18.051Z,6212.00
2023-07-24T11:51:18.003Z,6372.00
2023-07-24T11:52:18.005Z,6416.00
2023-07-24T11:53:18.003Z,6236.00
2023-07-24T11:54:18.114Z,5712.00
2023-07-24T11:55:18.678Z,5204.00
2023-07-24T11:56:17.969Z,5460.00
2023-07-24T11:57:17.962Z,5144.00
2023-07-24T11:58:18.819Z,4368.00
2023-07-24T11:59:17.937Z,3944.00
2023-07-24T12:00:17.886Z,4120.00
2023-07-24T12:01:17.940Z,4456.00
2023-07-24T12:02:17.930Z,5152.00
2023-07-24T12:03:18.005Z,5168.00
2023-07-24T12:04:17.916Z,3388.00
2023-07-24T12:05:17.825Z,2348.00
2023-07-24T12:06:17.829Z,2212.00
2023-07-24T12:07:17.842Z,2236.00
2023-07-24T12:08:17.801Z,2424.00
2023-07-24T12:09:17.797Z,3012.00
2023-07-24T12:10:17.774Z,4548.00
2023-07-24T12:11:17.789Z,6540.00
2023-07-24T12:12:17.849Z,7356.00
2023-07-24T12:13:19.325Z,7224.00
2023-07-24T12:14:17.816Z,5912.00
2023-07-24T12:15:18.096Z,4280.00
2023-07-24T12:16:17.738Z,2976.00
2023-07-24T12:17:17.708Z,3100.00
2023-07-24T12:18:17.750Z,3288.00
2023-07-24T12:19:17.689Z,3072.00
2023-07-24T12:20:17.721Z,2448.00
2023-07-24T12:21:17.692Z,2040.00
2023-07-24T12:22:17.661Z,1652.00
2023-07-24T12:23:17.687Z,1296.00
2023-07-24T12:24:17.667Z,1164.00
2023-07-24T12:25:17.665Z,1108.00
2023-07-24T12:26:17.628Z,1156.00
2023-07-24T12:27:17.608Z,1208.00
2023-07-24T12:28:17.572Z,1264.00
2023-07-24T12:29:17.644Z,1568.00
2023-07-24T12:30:17.670Z,2212.00
2023-07-24T12:31:17.618Z,3316.00
2023-07-24T12:32:17.578Z,4580.00